sensor_id;sensor_type;location;lat;lon;timestamp;P1;durP1;ratioP1;P2;durP2;ratioP2
79592;SDS011;69074;45.164;9.704;2023-07-29T00:01:28;6.8;;;5.3;;
79592;SDS011;69074;45.164;9.704;2023-07-29T00:03:53;6.8;;;5.3;;
79592;SDS011;69074;45.164;9.704;2023-07-29T00:06:18;6.8;;;5.3;;
79592;SDS011;69074;45.164;9.704;2023-07-29T00:08:43;6.3;;;5.2;;
79592;SDS011;69074;45.164;9.704;2023-07-29T00:11:08;6.3;;;5.2;;
79592;SDS011;69074;45.164;9.704;2023-07-29T00:13:33;6.3;;;5.2;;
79592;SDS011;69074;45.164;9.704;2023-07-29T00:15:58;6.3;;;5.2;;
79592;SDS011;69074;45.164;9.704;2023-07-29T00:18:23;6.3;;;5.2;;
79592;SDS011;69074;45.164;9.704;2023-07-29T00:20:48;6.3;;;5.2;;
79592;SDS011;69074;45.164;9.704;2023-07-29T00:23:13;7.8;;;6.0;;
79592;SDS011;69074;45.164;9.704;2023-07-29T00:25:38;7.8;;;6.0;;
79592;SDS011;69074;45.164;9.704;2023-07-29T00:28:03;7.8;;;6.0;;
79592;SDS011;69074;45.164;9.704;2023-07-29T00:30:28;7.8;;;6.0;;
79592;SDS011;69074;45.164;9.704;2023-07-29T00:32:53;7.8;;;6.0;;
79592;SDS011;69074;45.164;9.704;2023-07-29T00:35:18;7.8;;;6.0;;
79592;SDS011;69074;45.164;9.704;2023-07-29T00:37:43;7.8;;;6.0;;
79592;SDS011;69074;45.164;9.704;2023-07-29T00:40:11;9.8;;;6.9;;
79592;SDS011;69074;45.164;9.704;2023-07-29T00:42:33;9.8;;;6.9;;
79592;SDS011;69074;45.164;9.704;2023-07-29T00:44:58;9.8;;;6.9;;
79592;SDS011;69074;45.164;9.704;2023-07-29T00:47:23;9.8;;;6.9;;
79592;SDS011;69074;45.164;9.704;2023-07-29T00:49:49;9.8;;;6.9;;
79592;SDS011;69074;45.164;9.704;2023-07-29T00:52:13;9.8;;;6.9;;
79592;SDS011;69074;45.164;9.704;2023-07-29T00:54:38;9.1;;;6.5;;
79592;SDS011;69074;45.164;9.704;2023-07-29T00:57:04;9.1;;;6.5;;
79592;SDS011;69074;45.164;9.704;2023-07-29T00:59:28;9.1;;;6.5;;
79592;SDS011;69074;45.164;9.704;2023-07-29T01:01:53;9.1;;;6.5;;
79592;SDS011;69074;45.164;9.704;2023-07-29T01:04:18;9.1;;;6.5;;
79592;SDS011;69074;45.164;9.704;2023-07-29T01:06:46;9.1;;;6.5;;
79592;SDS011;69074;45.164;9.704;2023-07-29T01:09:09;9.7;;;6.3;;
79592;SDS011;69074;45.164;9.704;2023-07-29T01:11:35;9.7;;;6.3;;
79592;SDS011;69074;45.164;9.704;2023-07-29T01:13:59;9.7;;;6.3;;
79592;SDS011;69074;45.164;9.704;2023-07-29T01:16:25;9.7;;;6.3;;
79592;SDS011;69074;45.164;9.704;2023-07-29T01:18:48;9.7;;;6.3;;
79592;SDS011;69074;45.164;9.704;2023-07-29T01:21:13;9.7;;;6.3;;
79592;SDS011;69074;45.164;9.704;2023-07-29T01:23:38;9.6;;;7.2;;
79592;SDS011;69074;45.164;9.704;2023-07-29T01:26:03;9.6;;;7.2;;
79592;SDS011;69074;45.164;9.704;2023-07-29T01:28:28;9.6;;;7.2;;
79592;SDS011;69074;45.164;9.704;2023-07-29T01:30:55;9.6;;;7.2;;
79592;SDS011;69074;45.164;9.704;2023-07-29T01:33:20;9.6;;;7.2;;
79592;SDS011;69074;45.164;9.704;2023-07-29T01:35:44;9.6;;;7.2;;
79592;SDS011;69074;45.164;9.704;2023-07-29T01:38:09;8.1;;;6.9;;
79592;SDS011;69074;45.164;9.704;2023-07-29T01:40:33;8.1;;;6.9;;
79592;SDS011;69074;45.164;9.704;2023-07-29T01:42:58;8.1;;;6.9;;
79592;SDS011;69074;45.164;9.704;2023-07-29T01:45:24;8.1;;;6.9;;
79592;SDS011;69074;45.164;9.704;2023-07-29T01:47:48;8.1;;;6.9;;
79592;SDS011;69074;45.164;9.704;2023-07-29T01:50:13;8.1;;;6.9;;
79592;SDS011;69074;45.164;9.704;2023-07-29T01:52:38;8.1;;;6.9;;
79592;SDS011;69074;45.164;9.704;2023-07-29T01:55:04;7.9;;;7.0;;
79592;SDS011;69074;45.164;9.704;2023-07-29T01:57:29;7.9;;;7.0;;
79592;SDS011;69074;45.164;9.704;2023-07-29T01:59:53;7.9;;;7.0;;
79592;SDS011;69074;45.164;9.704;2023-07-29T02:02:18;7.9;;;7.0;;
79592;SDS011;69074;45.164;9.704;2023-07-29T02:04:43;7.9;;;7.0;;
79592;SDS011;69074;45.164;9.704;2023-07-29T02:07:09;7.9;;;7.0;;
79592;SDS011;69074;45.164;9.704;2023-07-29T02:09:34;7.3;;;6.5;;
79592;SDS011;69074;45.164;9.704;2023-07-29T02:11:59;7.3;;;6.5;;
79592;SDS011;69074;45.164;9.704;2023-07-29T02:14:24;7.3;;;6.5;;
79592;SDS011;69074;45.164;9.704;2023-07-29T02:16:49;7.3;;;6.5;;
79592;SDS011;69074;45.164;9.704;2023-07-29T02:19:14;7.3;;;6.5;;
79592;SDS011;69074;45.164;9.704;2023-07-29T02:21:39;7.3;;;6.5;;
79592;SDS011;69074;45.164;9.704;2023-07-29T02:24:04;7.7;;;6.1;;
79592;SDS011;69074;45.164;9.704;2023-07-29T02:26:29;7.7;;;6.1;;
79592;SDS011;69074;45.164;9.704;2023-07-29T02:28:54;7.7;;;6.1;;
79592;SDS011;69074;45.164;9.704;2023-07-29T02:31:20;7.7;;;6.1;;
79592;SDS011;69074;45.164;9.704;2023-07-29T02:33:44;7.7;;;6.1;;
79592;SDS011;69074;45.164;9.704;2023-07-29T02:36:09;7.7;;;6.1;;
79592;SDS011;69074;45.164;9.704;2023-07-29T02:38:34;10.0;;;6.3;;
79592;SDS011;69074;45.164;9.704;2023-07-29T02:40:59;10.0;;;6.3;;
79592;SDS011;69074;45.164;9.704;2023-07-29T02:43:24;10.0;;;6.3;;
79592;SDS011;69074;45.164;9.704;2023-07-29T02:45:49;10.0;;;6.3;;
79592;SDS011;69074;45.164;9.704;2023-07-29T02:48:14;10.0;;;6.3;;
79592;SDS011;69074;45.164;9.704;2023-07-29T02:50:39;10.0;;;6.3;;
79592;SDS011;69074;45.164;9.704;2023-07-29T02:53:04;10.0;;;6.3;;
79592;SDS011;69074;45.164;9.704;2023-07-29T02:55:29;8.4;;;6.7;;
79592;SDS011;69074;45.164;9.704;2023-07-29T02:57:54;8.4;;;6.7;;
79592;SDS011;69074;45.164;9.704;2023-07-29T03:00:19;8.4;;;6.7;;
79592;SDS011;69074;45.164;9.704;2023-07-29T03:02:44;8.4;;;6.7;;
79592;SDS011;69074;45.164;9.704;2023-07-29T03:05:09;8.4;;;6.7;;
79592;SDS011;69074;45.164;9.704;2023-07-29T03:07:34;8.4;;;6.7;;
79592;SDS011;69074;45.164;9.704;2023-07-29T03:09:59;9.5;;;6.9;;
79592;SDS011;69074;45.164;9.704;2023-07-29T03:12:24;9.5;;;6.9;;
79592;SDS011;69074;45.164;9.704;2023-07-29T03:14:49;9.5;;;6.9;;
79592;SDS011;69074;45.164;9.704;2023-07-29T03:17:14;9.5;;;6.9;;
79592;SDS011;69074;45.164;9.704;2023-07-29T03:19:39;9.5;;;6.9;;
79592;SDS011;69074;45.164;9.704;2023-07-29T03:22:04;9.5;;;6.9;;
79592;SDS011;69074;45.164;9.704;2023-07-29T03:24:29;13.9;;;8.5;;
79592;SDS011;69074;45.164;9.704;2023-07-29T03:26:54;13.9;;;8.5;;
79592;SDS011;69074;45.164;9.704;2023-07-29T03:29:19;13.9;;;8.5;;
79592;SDS011;69074;45.164;9.704;2023-07-29T03:31:44;13.9;;;8.5;;
79592;SDS011;69074;45.164;9.704;2023-07-29T03:34:09;13.9;;;8.5;;
79592;SDS011;69074;45.164;9.704;2023-07-29T03:36:34;13.9;;;8.5;;
79592;SDS011;69074;45.164;9.704;2023-07-29T03:38:59;12.8;;;10.1;;
79592;SDS011;69074;45.164;9.704;2023-07-29T03:41:24;12.8;;;10.1;;
79592;SDS011;69074;45.164;9.704;2023-07-29T03:43:49;12.8;;;10.1;;
79592;SDS011;69074;45.164;9.704;2023-07-29T03:46:14;12.8;;;10.1;;
79592;SDS011;69074;45.164;9.704;2023-07-29T03:48:39;12.8;;;10.1;;
79592;SDS011;69074;45.164;9.704;2023-07-29T03:51:04;12.8;;;10.1;;
79592;SDS011;69074;45.164;9.704;2023-07-29T03:53:29;13.5;;;9.7;;
79592;SDS011;69074;45.164;9.704;2023-07-29T03:55:54;13.5;;;9.7;;
79592;SDS011;69074;45.164;9.704;2023-07-29T03:58:19;13.5;;;9.7;;
79592;SDS011;69074;45.164;9.704;2023-07-29T04:00:44;13.5;;;9.7;;
79592;SDS011;69074;45.164;9.704;2023-07-29T04:03:09;13.5;;;9.7;;
79592;SDS011;69074;45.164;9.704;2023-07-29T04:05:34;13.5;;;9.7;;
79592;SDS011;69074;45.164;9.704;2023-07-29T04:07:59;13.5;;;9.7;;
79592;SDS011;69074;45.164;9.704;2023-07-29T04:10:24;11.5;;;9.6;;
79592;SDS011;69074;45.164;9.704;2023-07-29T04:12:49;11.5;;;9.6;;
79592;SDS011;69074;45.164;9.704;2023-07-29T04:15:14;11.5;;;9.6;;
79592;SDS011;69074;45.164;9.704;2023-07-29T04:17:39;11.5;;;9.6;;
79592;SDS011;69074;45.164;9.704;2023-07-29T04:20:04;11.5;;;9.6;;
79592;SDS011;69074;45.164;9.704;2023-07-29T04:22:29;11.5;;;9.6;;
79592;SDS011;69074;45.164;9.704;2023-07-29T04:24:54;13.7;;;9.4;;
79592;SDS011;69074;45.164;9.704;2023-07-29T04:27:19;13.7;;;9.4;;
79592;SDS011;69074;45.164;9.704;2023-07-29T04:29:44;13.7;;;9.4;;
79592;SDS011;69074;45.164;9.704;2023-07-29T04:32:09;13.7;;;9.4;;
79592;SDS011;69074;45.164;9.704;2023-07-29T04:34:34;13.7;;;9.4;;
79592;SDS011;69074;45.164;9.704;2023-07-29T04:36:59;13.7;;;9.4;;
79592;SDS011;69074;45.164;9.704;2023-07-29T04:39:24;12.3;;;8.9;;
79592;SDS011;69074;45.164;9.704;2023-07-29T04:41:49;12.3;;;8.9;;
79592;SDS011;69074;45.164;9.704;2023-07-29T04:44:14;12.3;;;8.9;;
79592;SDS011;69074;45.164;9.704;2023-07-29T04:46:39;12.3;;;8.9;;
79592;SDS011;69074;45.164;9.704;2023-07-29T04:49:04;12.3;;;8.9;;
79592;SDS011;69074;45.164;9.704;2023-07-29T04:51:29;12.3;;;8.9;;
79592;SDS011;69074;45.164;9.704;2023-07-29T04:53:54;14.1;;;9.8;;
79592;SDS011;69074;45.164;9.704;2023-07-29T04:56:19;14.1;;;9.8;;
79592;SDS011;69074;45.164;9.704;2023-07-29T04:58:44;14.1;;;9.8;;
79592;SDS011;69074;45.164;9.704;2023-07-29T05:01:09;14.1;;;9.8;;
79592;SDS011;69074;45.164;9.704;2023-07-29T05:03:34;14.1;;;9.8;;
79592;SDS011;69074;45.164;9.704;2023-07-29T05:05:59;14.1;;;9.8;;
79592;SDS011;69074;45.164;9.704;2023-07-29T05:08:25;12.5;;;10.4;;
79592;SDS011;69074;45.164;9.704;2023-07-29T05:10:49;12.5;;;10.4;;
79592;SDS011;69074;45.164;9.704;2023-07-29T05:13:14;12.5;;;10.4;;
79592;SDS011;69074;45.164;9.704;2023-07-29T05:15:39;12.5;;;10.4;;
79592;SDS011;69074;45.164;9.704;2023-07-29T05:18:04;12.5;;;10.4;;
79592;SDS011;69074;45.164;9.704;2023-07-29T05:20:29;12.5;;;10.4;;
79592;SDS011;69074;45.164;9.704;2023-07-29T05:22:54;12.5;;;10.4;;
79592;SDS011;69074;45.164;9.704;2023-07-29T05:25:19;11.6;;;10.2;;
79592;SDS011;69074;45.164;9.704;2023-07-29T05:27:44;11.6;;;10.2;;
79592;SDS011;69074;45.164;9.704;2023-07-29T05:30:09;11.6;;;10.2;;
79592;SDS011;69074;45.164;9.704;2023-07-29T05:32:34;11.6;;;10.2;;
79592;SDS011;69074;45.164;9.704;2023-07-29T05:34:59;11.6;;;10.2;;
79592;SDS011;69074;45.164;9.704;2023-07-29T05:37:24;11.6;;;10.2;;
79592;SDS011;69074;45.164;9.704;2023-07-29T05:39:49;12.9;;;10.2;;
79592;SDS011;69074;45.164;9.704;2023-07-29T05:42:14;12.9;;;10.2;;
79592;SDS011;69074;45.164;9.704;2023-07-29T05:44:39;12.9;;;10.2;;
79592;SDS011;69074;45.164;9.704;2023-07-29T05:47:04;12.9;;;10.2;;
79592;SDS011;69074;45.164;9.704;2023-07-29T05:49:29;12.9;;;10.2;;
79592;SDS011;69074;45.164;9.704;2023-07-29T05:51:54;12.9;;;10.2;;
79592;SDS011;69074;45.164;9.704;2023-07-29T05:54:19;13.4;;;9.7;;
79592;SDS011;69074;45.164;9.704;2023-07-29T05:56:44;13.4;;;9.7;;
79592;SDS011;69074;45.164;9.704;2023-07-29T05:59:09;13.4;;;9.7;;
79592;SDS011;69074;45.164;9.704;2023-07-29T06:01:34;13.4;;;9.7;;
79592;SDS011;69074;45.164;9.704;2023-07-29T06:03:59;13.4;;;9.7;;
79592;SDS011;69074;45.164;9.704;2023-07-29T06:06:24;13.4;;;9.7;;
79592;SDS011;69074;45.164;9.704;2023-07-29T06:08:49;12.1;;;9.3;;
79592;SDS011;69074;45.164;9.704;2023-07-29T06:11:15;12.1;;;9.3;;
79592;SDS011;69074;45.164;9.704;2023-07-29T06:13:39;12.1;;;9.3;;
79592;SDS011;69074;45.164;9.704;2023-07-29T06:16:04;12.1;;;9.3;;
79592;SDS011;69074;45.164;9.704;2023-07-29T06:18:29;12.1;;;9.3;;
79592;SDS011;69074;45.164;9.704;2023-07-29T06:20:55;12.1;;;9.3;;
79592;SDS011;69074;45.164;9.704;2023-07-29T06:23:19;10.6;;;7.5;;
79592;SDS011;69074;45.164;9.704;2023-07-29T06:25:44;10.6;;;7.5;;
79592;SDS011;69074;45.164;9.704;2023-07-29T06:28:10;10.6;;;7.5;;
79592;SDS011;69074;45.164;9.704;2023-07-29T06:30:34;10.6;;;7.5;;
79592;SDS011;69074;45.164;9.704;2023-07-29T06:33:00;10.6;;;7.5;;
79592;SDS011;69074;45.164;9.704;2023-07-29T06:35:25;10.6;;;7.5;;
79592;SDS011;69074;45.164;9.704;2023-07-29T06:37:50;10.6;;;7.5;;
79592;SDS011;69074;45.164;9.704;2023-07-29T06:40:15;11.7;;;7.4;;
79592;SDS011;69074;45.164;9.704;2023-07-29T06:42:40;11.7;;;7.4;;
79592;SDS011;69074;45.164;9.704;2023-07-29T06:45:05;11.7;;;7.4;;
79592;SDS011;69074;45.164;9.704;2023-07-29T06:47:30;11.7;;;7.4;;
79592;SDS011;69074;45.164;9.704;2023-07-29T06:49:55;11.7;;;7.4;;
79592;SDS011;69074;45.164;9.704;2023-07-29T06:52:20;11.7;;;7.4;;
79592;SDS011;69074;45.164;9.704;2023-07-29T06:54:45;7.3;;;5.8;;
79592;SDS011;69074;45.164;9.704;2023-07-29T06:57:10;7.3;;;5.8;;
79592;SDS011;69074;45.164;9.704;2023-07-29T06:59:35;7.3;;;5.8;;
79592;SDS011;69074;45.164;9.704;2023-07-29T07:02:00;7.3;;;5.8;;
79592;SDS011;69074;45.164;9.704;2023-07-29T07:04:25;7.3;;;5.8;;
79592;SDS011;69074;45.164;9.704;2023-07-29T07:06:50;7.3;;;5.8;;
79592;SDS011;69074;45.164;9.704;2023-07-29T07:09:15;16.3;;;13.3;;
79592;SDS011;69074;45.164;9.704;2023-07-29T07:11:40;16.3;;;13.3;;
79592;SDS011;69074;45.164;9.704;2023-07-29T07:14:05;16.3;;;13.3;;
79592;SDS011;69074;45.164;9.704;2023-07-29T07:16:30;16.3;;;13.3;;
79592;SDS011;69074;45.164;9.704;2023-07-29T07:18:55;16.3;;;13.3;;
79592;SDS011;69074;45.164;9.704;2023-07-29T07:21:20;16.3;;;13.3;;
79592;SDS011;69074;45.164;9.704;2023-07-29T07:23:45;8.7;;;6.9;;
79592;SDS011;69074;45.164;9.704;2023-07-29T07:26:10;8.7;;;6.9;;
79592;SDS011;69074;45.164;9.704;2023-07-29T07:28:35;8.7;;;6.9;;
79592;SDS011;69074;45.164;9.704;2023-07-29T07:31:00;8.7;;;6.9;;
79592;SDS011;69074;45.164;9.704;2023-07-29T07:33:25;8.7;;;6.9;;
79592;SDS011;69074;45.164;9.704;2023-07-29T07:35:50;8.7;;;6.9;;
79592;SDS011;69074;45.164;9.704;2023-07-29T07:38:15;16.0;;;9.1;;
79592;SDS011;69074;45.164;9.704;2023-07-29T07:40:40;16.0;;;9.1;;
79592;SDS011;69074;45.164;9.704;2023-07-29T07:43:05;16.0;;;9.1;;
79592;SDS011;69074;45.164;9.704;2023-07-29T07:45:31;16.0;;;9.1;;
79592;SDS011;69074;45.164;9.704;2023-07-29T07:47:55;16.0;;;9.1;;
79592;SDS011;69074;45.164;9.704;2023-07-29T07:50:20;16.0;;;9.1;;
79592;SDS011;69074;45.164;9.704;2023-07-29T07:52:45;16.0;;;9.1;;
79592;SDS011;69074;45.164;9.704;2023-07-29T07:55:10;14.7;;;7.0;;
79592;SDS011;69074;45.164;9.704;2023-07-29T07:57:35;14.7;;;7.0;;
79592;SDS011;69074;45.164;9.704;2023-07-29T08:00:00;14.7;;;7.0;;
79592;SDS011;69074;45.164;9.704;2023-07-29T08:02:25;14.7;;;7.0;;
79592;SDS011;69074;45.164;9.704;2023-07-29T08:04:50;14.7;;;7.0;;
79592;SDS011;69074;45.164;9.704;2023-07-29T08:07:15;14.7;;;7.0;;
79592;SDS011;69074;45.164;9.704;2023-07-29T08:09:40;14.1;;;4.7;;
79592;SDS011;69074;45.164;9.704;2023-07-29T08:12:05;14.1;;;4.7;;
79592;SDS011;69074;45.164;9.704;2023-07-29T08:14:30;14.1;;;4.7;;
79592;SDS011;69074;45.164;9.704;2023-07-29T08:16:55;14.1;;;4.7;;
79592;SDS011;69074;45.164;9.704;2023-07-29T08:19:20;14.1;;;4.7;;
79592;SDS011;69074;45.164;9.704;2023-07-29T08:21:45;14.1;;;4.7;;
79592;SDS011;69074;45.164;9.704;2023-07-29T08:24:10;17.8;;;14.5;;
79592;SDS011;69074;45.164;9.704;2023-07-29T08:26:35;17.8;;;14.5;;
79592;SDS011;69074;45.164;9.704;2023-07-29T08:29:00;17.8;;;14.5;;
79592;SDS011;69074;45.164;9.704;2023-07-29T08:31:25;17.8;;;14.5;;
79592;SDS011;69074;45.164;9.704;2023-07-29T08:33:50;17.8;;;14.5;;
79592;SDS011;69074;45.164;9.704;2023-07-29T08:36:15;17.8;;;14.5;;
79592;SDS011;69074;45.164;9.704;2023-07-29T08:38:40;11.0;;;8.8;;
79592;SDS011;69074;45.164;9.704;2023-07-29T08:41:06;11.0;;;8.8;;
79592;SDS011;69074;45.164;9.704;2023-07-29T08:43:31;11.0;;;8.8;;
79592;SDS011;69074;45.164;9.704;2023-07-29T08:45:55;11.0;;;8.8;;
79592;SDS011;69074;45.164;9.704;2023-07-29T08:48:23;11.0;;;8.8;;
79592;SDS011;69074;45.164;9.704;2023-07-29T08:50:45;11.0;;;8.8;;
79592;SDS011;69074;45.164;9.704;2023-07-29T08:53:10;7.6;;;5.5;;
79592;SDS011;69074;45.164;9.704;2023-07-29T08:55:35;7.6;;;5.5;;
79592;SDS011;69074;45.164;9.704;2023-07-29T08:58:00;7.6;;;5.5;;
79592;SDS011;69074;45.164;9.704;2023-07-29T09:00:25;7.6;;;5.5;;
79592;SDS011;69074;45.164;9.704;2023-07-29T09:02:50;7.6;;;5.5;;
79592;SDS011;69074;45.164;9.704;2023-07-29T09:05:15;7.6;;;5.5;;
79592;SDS011;69074;45.164;9.704;2023-07-29T09:07:40;7.6;;;5.5;;
79592;SDS011;69074;45.164;9.704;2023-07-29T09:10:08;33.1;;;20.0;;
79592;SDS011;69074;45.164;9.704;2023-07-29T09:12:30;33.1;;;20.0;;
79592;SDS011;69074;45.164;9.704;2023-07-29T09:14:55;33.1;;;20.0;;
79592;SDS011;69074;45.164;9.704;2023-07-29T09:17:20;33.1;;;20.0;;
79592;SDS011;69074;45.164;9.704;2023-07-29T09:19:47;33.1;;;20.0;;
79592;SDS011;69074;45.164;9.704;2023-07-29T09:22:16;33.1;;;20.0;;
79592;SDS011;69074;45.164;9.704;2023-07-29T09:24:35;18.1;;;8.4;;
79592;SDS011;69074;45.164;9.704;2023-07-29T09:27:00;18.1;;;8.4;;
79592;SDS011;69074;45.164;9.704;2023-07-29T09:29:27;18.1;;;8.4;;
79592;SDS011;69074;45.164;9.704;2023-07-29T09:31:50;18.1;;;8.4;;
79592;SDS011;69074;45.164;9.704;2023-07-29T09:34:15;18.1;;;8.4;;
79592;SDS011;69074;45.164;9.704;2023-07-29T09:36:40;18.1;;;8.4;;
79592;SDS011;69074;45.164;9.704;2023-07-29T09:39:10;7.3;;;5.2;;
79592;SDS011;69074;45.164;9.704;2023-07-29T09:41:30;7.3;;;5.2;;
79592;SDS011;69074;45.164;9.704;2023-07-29T09:43:56;7.3;;;5.2;;
79592;SDS011;69074;45.164;9.704;2023-07-29T09:46:22;7.3;;;5.2;;
79592;SDS011;69074;45.164;9.704;2023-07-29T09:48:45;7.3;;;5.2;;
79592;SDS011;69074;45.164;9.704;2023-07-29T09:51:11;7.3;;;5.2;;
79592;SDS011;69074;45.164;9.704;2023-07-29T09:53:38;16.2;;;13.3;;
79592;SDS011;69074;45.164;9.704;2023-07-29T09:56:00;16.2;;;13.3;;
79592;SDS011;69074;45.164;9.704;2023-07-29T09:58:26;16.2;;;13.3;;
79592;SDS011;69074;45.164;9.704;2023-07-29T10:00:50;16.2;;;13.3;;
79592;SDS011;69074;45.164;9.704;2023-07-29T10:03:15;16.2;;;13.3;;
79592;SDS011;69074;45.164;9.704;2023-07-29T10:05:40;16.2;;;13.3;;
79592;SDS011;69074;45.164;9.704;2023-07-29T10:08:05;16.2;;;13.3;;
79592;SDS011;69074;45.164;9.704;2023-07-29T10:10:30;16.2;;;10.0;;
79592;SDS011;69074;45.164;9.704;2023-07-29T10:12:55;16.2;;;10.0;;
79592;SDS011;69074;45.164;9.704;2023-07-29T10:15:20;16.2;;;10.0;;
79592;SDS011;69074;45.164;9.704;2023-07-29T10:17:46;16.2;;;10.0;;
79592;SDS011;69074;45.164;9.704;2023-07-29T10:20:10;16.2;;;10.0;;
79592;SDS011;69074;45.164;9.704;2023-07-29T10:22:36;16.2;;;10.0;;
79592;SDS011;69074;45.164;9.704;2023-07-29T10:25:03;7.9;;;4.7;;
79592;SDS011;69074;45.164;9.704;2023-07-29T10:27:25;7.9;;;4.7;;
79592;SDS011;69074;45.164;9.704;2023-07-29T10:29:51;7.9;;;4.7;;
79592;SDS011;69074;45.164;9.704;2023-07-29T10:32:16;7.9;;;4.7;;
79592;SDS011;69074;45.164;9.704;2023-07-29T10:34:41;7.9;;;4.7;;
79592;SDS011;69074;45.164;9.704;2023-07-29T10:37:06;7.9;;;4.7;;
79592;SDS011;69074;45.164;9.704;2023-07-29T10:39:35;7.1;;;4.7;;
79592;SDS011;69074;45.164;9.704;2023-07-29T10:41:56;7.1;;;4.7;;
79592;SDS011;69074;45.164;9.704;2023-07-29T10:44:52;7.1;;;4.7;;
79592;SDS011;69074;45.164;9.704;2023-07-29T10:46:46;7.1;;;4.7;;
79592;SDS011;69074;45.164;9.704;2023-07-29T10:49:11;7.1;;;4.7;;
79592;SDS011;69074;45.164;9.704;2023-07-29T10:51:36;7.1;;;4.7;;
79592;SDS011;69074;45.164;9.704;2023-07-29T10:54:01;15.9;;;9.7;;
79592;SDS011;69074;45.164;9.704;2023-07-29T10:56:26;15.9;;;9.7;;
79592;SDS011;69074;45.164;9.704;2023-07-29T10:58:51;15.9;;;9.7;;
79592;SDS011;69074;45.164;9.704;2023-07-29T11:01:23;15.9;;;9.7;;
79592;SDS011;69074;45.164;9.704;2023-07-29T11:03:41;15.9;;;9.7;;
79592;SDS011;69074;45.164;9.704;2023-07-29T11:06:06;15.9;;;9.7;;
79592;SDS011;69074;45.164;9.704;2023-07-29T11:08:31;8.9;;;4.7;;
79592;SDS011;69074;45.164;9.704;2023-07-29T11:10:57;8.9;;;4.7;;
79592;SDS011;69074;45.164;9.704;2023-07-29T11:13:21;8.9;;;4.7;;
79592;SDS011;69074;45.164;9.704;2023-07-29T11:15:46;8.9;;;4.7;;
79592;SDS011;69074;45.164;9.704;2023-07-29T11:18:11;8.9;;;4.7;;
79592;SDS011;69074;45.164;9.704;2023-07-29T11:20:36;8.9;;;4.7;;
79592;SDS011;69074;45.164;9.704;2023-07-29T11:23:03;8.9;;;4.7;;
79592;SDS011;69074;45.164;9.704;2023-07-29T11:25:26;4.9;;;4.3;;
79592;SDS011;69074;45.164;9.704;2023-07-29T11:27:52;4.9;;;4.3;;
79592;SDS011;69074;45.164;9.704;2023-07-29T11:30:16;4.9;;;4.3;;
79592;SDS011;69074;45.164;9.704;2023-07-29T11:32:42;4.9;;;4.3;;
79592;SDS011;69074;45.164;9.704;2023-07-29T11:35:07;4.9;;;4.3;;
79592;SDS011;69074;45.164;9.704;2023-07-29T11:37:32;4.9;;;4.3;;
79592;SDS011;69074;45.164;9.704;2023-07-29T11:39:56;4.8;;;3.9;;
79592;SDS011;69074;45.164;9.704;2023-07-29T11:42:21;4.8;;;3.9;;
79592;SDS011;69074;45.164;9.704;2023-07-29T11:44:46;4.8;;;3.9;;
79592;SDS011;69074;45.164;9.704;2023-07-29T11:47:12;4.8;;;3.9;;
79592;SDS011;69074;45.164;9.704;2023-07-29T11:49:37;4.8;;;3.9;;
79592;SDS011;69074;45.164;9.704;2023-07-29T11:52:01;4.8;;;3.9;;
79592;SDS011;69074;45.164;9.704;2023-07-29T11:54:26;6.2;;;4.3;;
79592;SDS011;69074;45.164;9.704;2023-07-29T11:56:51;6.2;;;4.3;;
79592;SDS011;69074;45.164;9.704;2023-07-29T11:59:16;6.2;;;4.3;;
79592;SDS011;69074;45.164;9.704;2023-07-29T12:01:41;6.2;;;4.3;;
79592;SDS011;69074;45.164;9.704;2023-07-29T12:04:06;6.2;;;4.3;;
79592;SDS011;69074;45.164;9.704;2023-07-29T12:06:31;6.2;;;4.3;;
79592;SDS011;69074;45.164;9.704;2023-07-29T12:08:56;5.5;;;4.4;;
79592;SDS011;69074;45.164;9.704;2023-07-29T12:11:21;5.5;;;4.4;;
79592;SDS011;69074;45.164;9.704;2023-07-29T12:13:46;5.5;;;4.4;;
79592;SDS011;69074;45.164;9.704;2023-07-29T12:16:15;5.5;;;4.4;;
79592;SDS011;69074;45.164;9.704;2023-07-29T12:18:36;5.5;;;4.4;;
79592;SDS011;69074;45.164;9.704;2023-07-29T12:21:01;5.5;;;4.4;;
79592;SDS011;69074;45.164;9.704;2023-07-29T12:23:26;14.2;;;12.8;;
79592;SDS011;69074;45.164;9.704;2023-07-29T12:25:51;14.2;;;12.8;;
79592;SDS011;69074;45.164;9.704;2023-07-29T12:28:16;14.2;;;12.8;;
79592;SDS011;69074;45.164;9.704;2023-07-29T12:30:41;14.2;;;12.8;;
79592;SDS011;69074;45.164;9.704;2023-07-29T12:33:06;14.2;;;12.8;;
79592;SDS011;69074;45.164;9.704;2023-07-29T12:35:35;14.2;;;12.8;;
79592;SDS011;69074;45.164;9.704;2023-07-29T12:37:58;14.2;;;12.8;;
79592;SDS011;69074;45.164;9.704;2023-07-29T12:40:22;5.9;;;5.2;;
79592;SDS011;69074;45.164;9.704;2023-07-29T12:42:46;5.9;;;5.2;;
79592;SDS011;69074;45.164;9.704;2023-07-29T12:45:11;5.9;;;5.2;;
79592;SDS011;69074;45.164;9.704;2023-07-29T12:47:36;5.9;;;5.2;;
79592;SDS011;69074;45.164;9.704;2023-07-29T12:50:01;5.9;;;5.2;;
79592;SDS011;69074;45.164;9.704;2023-07-29T12:52:26;5.9;;;5.2;;
79592;SDS011;69074;45.164;9.704;2023-07-29T12:54:51;6.7;;;4.5;;
79592;SDS011;69074;45.164;9.704;2023-07-29T12:57:16;6.7;;;4.5;;
79592;SDS011;69074;45.164;9.704;2023-07-29T12:59:41;6.7;;;4.5;;
79592;SDS011;69074;45.164;9.704;2023-07-29T13:02:06;6.7;;;4.5;;
79592;SDS011;69074;45.164;9.704;2023-07-29T13:04:32;6.7;;;4.5;;
79592;SDS011;69074;45.164;9.704;2023-07-29T13:06:56;6.7;;;4.5;;
79592;SDS011;69074;45.164;9.704;2023-07-29T13:09:21;5.4;;;4.1;;
79592;SDS011;69074;45.164;9.704;2023-07-29T13:11:46;5.4;;;4.1;;
79592;SDS011;69074;45.164;9.704;2023-07-29T13:14:11;5.4;;;4.1;;
79592;SDS011;69074;45.164;9.704;2023-07-29T13:16:36;5.4;;;4.1;;
79592;SDS011;69074;45.164;9.704;2023-07-29T13:19:01;5.4;;;4.1;;
79592;SDS011;69074;45.164;9.704;2023-07-29T13:21:26;5.4;;;4.1;;
79592;SDS011;69074;45.164;9.704;2023-07-29T13:23:51;6.1;;;4.4;;
79592;SDS011;69074;45.164;9.704;2023-07-29T13:26:16;6.1;;;4.4;;
79592;SDS011;69074;45.164;9.704;2023-07-29T13:28:42;6.1;;;4.4;;
79592;SDS011;69074;45.164;9.704;2023-07-29T13:31:07;6.1;;;4.4;;
79592;SDS011;69074;45.164;9.704;2023-07-29T13:33:32;6.1;;;4.4;;
79592;SDS011;69074;45.164;9.704;2023-07-29T13:35:57;6.1;;;4.4;;
79592;SDS011;69074;45.164;9.704;2023-07-29T13:38:22;7.4;;;5.5;;
79592;SDS011;69074;45.164;9.704;2023-07-29T13:40:47;7.4;;;5.5;;
79592;SDS011;69074;45.164;9.704;2023-07-29T13:43:12;7.4;;;5.5;;
79592;SDS011;69074;45.164;9.704;2023-07-29T13:45:37;7.4;;;5.5;;
79592;SDS011;69074;45.164;9.704;2023-07-29T13:48:02;7.4;;;5.5;;
79592;SDS011;69074;45.164;9.704;2023-07-29T13:50:27;7.4;;;5.5;;
79592;SDS011;69074;45.164;9.704;2023-07-29T13:52:52;7.4;;;5.5;;
79592;SDS011;69074;45.164;9.704;2023-07-29T13:55:17;5.7;;;4.3;;
79592;SDS011;69074;45.164;9.704;2023-07-29T13:57:42;5.7;;;4.3;;
79592;SDS011;69074;45.164;9.704;2023-07-29T14:00:07;5.7;;;4.3;;
79592;SDS011;69074;45.164;9.704;2023-07-29T14:02:32;5.7;;;4.3;;
79592;SDS011;69074;45.164;9.704;2023-07-29T14:04:57;5.7;;;4.3;;
79592;SDS011;69074;45.164;9.704;2023-07-29T14:07:22;5.7;;;4.3;;
79592;SDS011;69074;45.164;9.704;2023-07-29T14:09:47;5.2;;;4.0;;
79592;SDS011;69074;45.164;9.704;2023-07-29T14:12:12;5.2;;;4.0;;
79592;SDS011;69074;45.164;9.704;2023-07-29T14:14:37;5.2;;;4.0;;
79592;SDS011;69074;45.164;9.704;2023-07-29T14:17:02;5.2;;;4.0;;
79592;SDS011;69074;45.164;9.704;2023-07-29T14:19:27;5.2;;;4.0;;
79592;SDS011;69074;45.164;9.704;2023-07-29T14:21:52;5.2;;;4.0;;
79592;SDS011;69074;45.164;9.704;2023-07-29T14:24:17;8.5;;;6.1;;
79592;SDS011;69074;45.164;9.704;2023-07-29T14:26:42;8.5;;;6.1;;
79592;SDS011;69074;45.164;9.704;2023-07-29T14:29:07;8.5;;;6.1;;
79592;SDS011;69074;45.164;9.704;2023-07-29T14:31:32;8.5;;;6.1;;
79592;SDS011;69074;45.164;9.704;2023-07-29T14:33:57;8.5;;;6.1;;
79592;SDS011;69074;45.164;9.704;2023-07-29T14:36:22;8.5;;;6.1;;
79592;SDS011;69074;45.164;9.704;2023-07-29T14:38:47;6.1;;;5.5;;
79592;SDS011;69074;45.164;9.704;2023-07-29T14:41:12;6.1;;;5.5;;
79592;SDS011;69074;45.164;9.704;2023-07-29T14:43:37;6.1;;;5.5;;
79592;SDS011;69074;45.164;9.704;2023-07-29T14:46:02;6.1;;;5.5;;
79592;SDS011;69074;45.164;9.704;2023-07-29T14:48:27;6.1;;;5.5;;
79592;SDS011;69074;45.164;9.704;2023-07-29T14:50:52;6.1;;;5.5;;
79592;SDS011;69074;45.164;9.704;2023-07-29T14:53:17;5.9;;;4.4;;